createdAt,value
2018-03-27T00:00:16.719Z,65.66
2018-03-27T00:01:20.040Z,65.63
2018-03-27T00:02:23.394Z,65.58
2018-03-27T00:03:26.733Z,65.59
2018-03-27T00:04:30.069Z,65.59
2018-03-27T00:05:33.402Z,65.59
2018-03-27T00:06:36.701Z,65.59
2018-03-27T00:07:40.093Z,65.66
2018-03-27T00:08:43.400Z,65.73
2018-03-27T00:09:46.791Z,65.79
2018-03-27T00:10:50.088Z,65.83
2018-03-27T00:11:53.499Z,65.87
2018-03-27T00:12:56.827Z,65.87
2018-03-27T00:14:00.144Z,65.89
2018-03-27T00:15:03.503Z,65.92
2018-03-27T00:16:06.905Z,65.96
2018-03-27T00:17:10.203Z,65.97
2018-03-27T00:18:13.560Z,66.02
2018-03-27T00:19:16.900Z,66.07
2018-03-27T00:20:20.212Z,66.11
2018-03-27T00:21:23.558Z,66.15
2018-03-27T00:22:26.870Z,66.17
2018-03-27T00:23:30.212Z,66.14
2018-03-27T00:24:42.383Z,66.24
2018-03-27T00:25:45.751Z,66.30
2018-03-27T00:27:00.535Z,66.35
2018-03-27T00:28:16.799Z,66.45
2018-03-27T00:29:31.839Z,66.58
2018-03-27T00:30:46.877Z,66.67
2018-03-27T00:32:01.925Z,66.75
2018-03-27T00:33:17.068Z,66.84
2018-03-27T00:34:32.048Z,66.89
2018-03-27T00:35:47.118Z,66.96
2018-03-27T00:37:02.153Z,67.02
2018-03-27T00:38:17.238Z,67.06
2018-03-27T00:39:32.489Z,67.12
2018-03-27T00:40:43.373Z,67.20
2018-03-27T00:43:33.702Z,67.45
2018-03-27T00:44:37.033Z,67.42
2018-03-27T00:45:40.349Z,67.41
2018-03-27T00:46:43.690Z,67.39
2018-03-27T00:47:47.044Z,67.38
2018-03-27T00:48:50.356Z,67.39
2018-03-27T00:49:53.767Z,67.40
2018-03-27T00:50:57.082Z,67.41
2018-03-27T00:52:00.570Z,67.42
2018-03-27T00:53:03.860Z,67.48
2018-03-27T00:54:07.187Z,67.54
2018-03-27T00:55:10.604Z,67.62
2018-03-27T00:56:13.917Z,67.65
2018-03-27T00:57:17.260Z,67.68
2018-03-27T00:58:20.549Z,67.71
2018-03-27T00:59:23.883Z,67.74
2018-03-27T01:00:27.961Z,67.77
2018-03-27T01:01:31.348Z,67.83
2018-03-27T01:02:34.697Z,67.88
2018-03-27T01:03:38.116Z,67.94
2018-03-27T01:04:41.408Z,67.97
2018-03-27T01:05:44.737Z,67.98
2018-03-27T01:06:48.085Z,67.99
2018-03-27T01:07:51.484Z,68.02
2018-03-27T01:08:54.783Z,68.05
2018-03-27T01:09:58.106Z,68.09
2018-03-27T01:11:01.459Z,68.12
2018-03-27T01:12:04.804Z,68.11
2018-03-27T01:13:08.139Z,68.09
2018-03-27T01:14:11.464Z,68.10
2018-03-27T01:15:14.846Z,68.10
2018-03-27T01:16:18.159Z,68.10
2018-03-27T01:17:21.470Z,68.11
2018-03-27T01:18:24.810Z,68.12
2018-03-27T01:19:28.131Z,68.13
2018-03-27T01:20:31.470Z,68.15
2018-03-27T01:21:34.822Z,68.16
2018-03-27T01:22:38.144Z,68.17
2018-03-27T01:23:41.465Z,68.18
2018-03-27T01:24:44.780Z,68.19
2018-03-27T01:25:48.204Z,68.20
2018-03-27T01:26:51.540Z,68.21
2018-03-27T01:27:55.688Z,68.22
2018-03-27T01:28:59.197Z,68.21
2018-03-27T01:30:02.508Z,68.21
2018-03-27T01:31:06.651Z,68.23
2018-03-27T01:32:09.993Z,68.24
2018-03-27T01:33:13.291Z,68.25
2018-03-27T01:34:16.629Z,68.25
2018-03-27T01:35:20.017Z,68.25
2018-03-27T01:36:23.318Z,68.25
2018-03-27T01:37:26.682Z,68.29
2018-03-27T01:38:30.009Z,68.33
2018-03-27T01:39:33.344Z,68.39
2018-03-27T01:40:36.653Z,68.46
2018-03-27T01:41:40.010Z,68.48
2018-03-27T01:42:43.403Z,68.49
2018-03-27T01:43:46.727Z,68.51
2018-03-27T01:44:50.082Z,68.53
2018-03-27T01:45:53.430Z,68.56
2018-03-27T01:46:56.742Z,68.61
2018-03-27T01:48:00.086Z,68.64
2018-03-27T01:49:03.683Z,68.70
2018-03-27T01:50:07.004Z,68.76
2018-03-27T01:51:10.385Z,68.77
2018-03-27T01:52:13.771Z,68.80
2018-03-27T01:53:17.115Z,68.82
2018-03-27T01:54:20.448Z,68.81
2018-03-27T01:55:23.937Z,68.85
2018-03-27T01:56:27.245Z,68.90
2018-03-27T01:57:30.595Z,68.89
2018-03-27T01:58:33.924Z,68.92
2018-03-27T01:59:37.237Z,68.95
2018-03-27T02:00:40.552Z,68.98
2018-03-27T02:01:43.899Z,68.99
2018-03-27T02:02:47.201Z,68.99
2018-03-27T02:03:50.541Z,68.99
2018-03-27T02:04:53.835Z,69.00
2018-03-27T02:05:57.163Z,69.00
2018-03-27T02:07:00.480Z,69.00
2018-03-27T02:08:03.819Z,69.04
2018-03-27T02:09:07.155Z,69.12
2018-03-27T02:10:10.500Z,69.17
2018-03-27T02:11:19.293Z,69.19
2018-03-27T02:12:28.343Z,69.25
2018-03-27T02:13:37.365Z,69.31
2018-03-27T02:14:46.411Z,69.34
2018-03-27T02:15:55.428Z,69.36
2018-03-27T02:17:04.501Z,69.39
2018-03-27T02:18:13.419Z,69.42
2018-03-27T02:19:22.429Z,69.45
2018-03-27T02:20:31.414Z,69.51
2018-03-27T02:21:34.162Z,69.56
2018-03-27T02:22:39.947Z,69.59
2018-03-27T02:23:44.200Z,69.60
2018-03-27T02:24:48.244Z,69.64
2018-03-27T02:25:51.618Z,69.68
2018-03-27T02:26:54.962Z,69.73
2018-03-27T02:27:58.273Z,69.76
2018-03-27T02:29:02.432Z,69.81
2018-03-27T02:30:06.115Z,69.86
2018-03-27T02:31:09.438Z,69.90
2018-03-27T02:32:13.442Z,69.96
2018-03-27T02:33:16.748Z,69.98
2018-03-27T02:34:20.079Z,70.02
2018-03-27T02:35:23.459Z,70.04
2018-03-27T02:36:26.822Z,70.04
2018-03-27T02:37:30.192Z,70.04
2018-03-27T02:38:33.495Z,70.06
2018-03-27T02:39:36.830Z,70.06
2018-03-27T02:40:40.135Z,70.08
2018-03-27T02:41:43.521Z,70.09
2018-03-27T02:42:46.886Z,70.07
2018-03-27T02:43:50.195Z,70.07
2018-03-27T02:44:53.537Z,70.05
2018-03-27T02:45:56.887Z,70.04
2018-03-27T02:47:00.221Z,70.00
2018-03-27T02:48:03.546Z,69.97
2018-03-27T02:49:06.853Z,69.92
2018-03-27T02:50:10.537Z,69.88
2018-03-27T02:51:13.891Z,69.87
2018-03-27T02:52:17.298Z,69.86
2018-03-27T02:53:20.614Z,69.86
2018-03-27T02:54:23.947Z,69.84
2018-03-27T02:55:27.256Z,69.85
2018-03-27T02:56:30.931Z,69.85
2018-03-27T02:57:34.252Z,69.88
2018-03-27T02:58:37.576Z,69.89
2018-03-27T02:59:40.899Z,69.90
2018-03-27T03:00:44.258Z,69.92
2018-03-27T03:01:47.585Z,69.99
2018-03-27T03:02:50.950Z,69.98
2018-03-27T03:03:54.338Z,70.03
2018-03-27T03:04:57.656Z,70.07
2018-03-27T03:06:00.954Z,70.11
2018-03-27T03:07:04.290Z,70.15
2018-03-27T03:08:07.694Z,70.16
2018-03-27T03:09:11.023Z,70.18
2018-03-27T03:10:14.324Z,70.20
2018-03-27T03:11:17.700Z,70.22
2018-03-27T03:12:21.918Z,70.26
2018-03-27T03:13:25.279Z,70.30
2018-03-27T03:14:28.580Z,70.30
2018-03-27T03:15:31.894Z,70.35
2018-03-27T03:16:35.256Z,70.38
2018-03-27T03:17:38.642Z,70.40
2018-03-27T03:18:42.016Z,70.41
2018-03-27T03:19:45.432Z,70.44
2018-03-27T03:20:48.736Z,70.47
2018-03-27T03:21:52.112Z,70.52
2018-03-27T03:22:55.351Z,70.57
2018-03-27T03:23:58.719Z,70.60
2018-03-27T03:25:02.043Z,70.63
2018-03-27T03:26:05.442Z,70.66
2018-03-27T03:27:08.724Z,70.70
2018-03-27T03:28:12.046Z,70.76
2018-03-27T03:29:17.299Z,70.80
2018-03-27T03:30:20.626Z,70.84
2018-03-27T03:31:23.956Z,70.87
2018-03-27T03:32:27.247Z,70.89
2018-03-27T03:33:30.576Z,70.91
2018-03-27T03:34:33.927Z,70.92
2018-03-27T03:35:37.261Z,70.92
2018-03-27T03:36:40.572Z,70.95
2018-03-27T03:37:43.880Z,70.95
2018-03-27T03:38:47.191Z,70.94
2018-03-27T03:39:50.539Z,70.93
2018-03-27T03:40:53.844Z,70.94
2018-03-27T03:41:57.160Z,70.95
2018-03-27T03:43:00.500Z,70.98
2018-03-27T03:44:03.844Z,71.00
2018-03-27T03:45:07.468Z,71.03
2018-03-27T03:46:10.821Z,71.05
2018-03-27T03:47:14.142Z,71.07
2018-03-27T03:48:17.456Z,71.11
2018-03-27T03:49:20.761Z,71.12
2018-03-27T03:50:24.099Z,71.15
2018-03-27T03:51:27.436Z,71.20
2018-03-27T03:52:30.792Z,71.23
2018-03-27T03:53:34.100Z,71.27
2018-03-27T03:54:37.415Z,71.33
2018-03-27T03:55:40.744Z,71.39
2018-03-27T03:56:44.064Z,71.44
2018-03-27T03:57:47.392Z,71.48
2018-03-27T03:58:50.753Z,71.50
2018-03-27T03:59:54.112Z,71.53
2018-03-27T04:00:57.490Z,71.58
2018-03-27T04:02:00.794Z,71.65
2018-03-27T04:03:04.136Z,71.71
2018-03-27T04:04:07.422Z,71.74
2018-03-27T04:05:10.729Z,71.75
2018-03-27T04:06:14.087Z,71.77
2018-03-27T04:07:17.383Z,71.79
2018-03-27T04:08:20.704Z,71.82
2018-03-27T04:09:24.017Z,71.79
2018-03-27T04:10:27.353Z,71.77
2018-03-27T04:11:30.725Z,71.73
2018-03-27T04:12:34.032Z,71.70
2018-03-27T04:13:37.361Z,71.70
2018-03-27T04:14:41.180Z,71.74
2018-03-27T04:15:44.503Z,71.78
2018-03-27T04:16:47.844Z,71.79
2018-03-27T04:17:51.219Z,71.81
2018-03-27T04:18:54.537Z,71.88
2018-03-27T04:19:57.909Z,71.96
2018-03-27T04:21:02.148Z,71.99
2018-03-27T04:22:05.486Z,72.01
2018-03-27T04:23:08.795Z,72.03
2018-03-27T04:24:12.123Z,72.04
2018-03-27T04:25:15.464Z,72.02
2018-03-27T04:26:18.811Z,72.01
2018-03-27T04:27:22.161Z,72.00
2018-03-27T04:28:25.478Z,72.00
2018-03-27T04:29:30.503Z,72.02
2018-03-27T04:30:33.830Z,72.08
2018-03-27T04:31:37.141Z,72.11
2018-03-27T04:32:40.499Z,72.16
2018-03-27T04:33:43.795Z,72.18
2018-03-27T04:34:47.095Z,72.21
2018-03-27T04:35:50.800Z,72.24
2018-03-27T04:36:54.134Z,72.27
2018-03-27T04:37:57.521Z,72.30
2018-03-27T04:39:00.870Z,72.30
2018-03-27T04:40:04.199Z,72.34
2018-03-27T04:41:07.524Z,72.37
2018-03-27T04:42:10.853Z,72.44
2018-03-27T04:43:14.184Z,72.49
2018-03-27T04:44:18.112Z,72.51
2018-03-27T04:45:21.459Z,72.55
2018-03-27T04:46:24.814Z,72.56
2018-03-27T04:47:28.099Z,72.57
2018-03-27T04:48:31.439Z,72.56
2018-03-27T04:49:34.758Z,72.58
2018-03-27T04:50:38.093Z,72.59
2018-03-27T04:51:41.431Z,72.62
2018-03-27T04:52:44.760Z,72.63
2018-03-27T04:53:48.140Z,72.63
2018-03-27T04:54:51.526Z,72.62
2018-03-27T04:55:54.860Z,72.62
2018-03-27T04:56:58.194Z,72.64
2018-03-27T04:58:01.632Z,72.66
2018-03-27T04:59:05.010Z,72.68
2018-03-27T05:00:08.395Z,72.72
2018-03-27T05:01:11.759Z,72.74
2018-03-27T05:02:15.091Z,72.77
2018-03-27T05:03:18.498Z,72.79
2018-03-27T05:04:21.845Z,72.79
2018-03-27T05:05:25.164Z,72.81
2018-03-27T05:06:28.584Z,72.81
2018-03-27T05:07:31.955Z,72.83
2018-03-27T05:08:36.056Z,72.87
2018-03-27T05:09:41.449Z,72.88
2018-03-27T05:10:44.744Z,72.92
2018-03-27T05:11:48.068Z,72.92
2018-03-27T05:12:51.400Z,72.92
2018-03-27T05:13:54.725Z,72.95
2018-03-27T05:14:58.095Z,72.97
2018-03-27T05:16:01.439Z,72.99
2018-03-27T05:17:04.796Z,73.00
2018-03-27T05:18:08.126Z,73.01
2018-03-27T05:19:11.425Z,73.01
2018-03-27T05:20:14.792Z,73.00
2018-03-27T05:21:18.203Z,73.03
2018-03-27T05:22:21.490Z,73.03
2018-03-27T05:23:24.815Z,73.06
2018-03-27T05:24:28.113Z,73.08
2018-03-27T05:25:31.455Z,73.07
2018-03-27T05:26:34.821Z,73.06
2018-03-27T05:27:38.140Z,73.05
2018-03-27T05:28:41.490Z,73.06
2018-03-27T05:29:46.056Z,73.09
2018-03-27T05:30:49.550Z,73.14
2018-03-27T05:31:52.847Z,73.15
2018-03-27T05:32:56.170Z,73.19
2018-03-27T05:33:59.570Z,73.21
2018-03-27T05:35:02.965Z,73.25
2018-03-27T05:36:06.292Z,73.26
2018-03-27T05:37:09.714Z,73.26
2018-03-27T05:38:13.041Z,73.26
2018-03-27T05:39:16.367Z,73.27
2018-03-27T05:40:20.031Z,73.25
2018-03-27T05:41:23.372Z,73.24
2018-03-27T05:42:26.710Z,73.23
2018-03-27T05:43:30.024Z,73.22
2018-03-27T05:44:33.411Z,73.20
2018-03-27T05:45:36.717Z,73.18
2018-03-27T05:46:40.096Z,73.18
2018-03-27T05:47:43.380Z,73.27
2018-03-27T05:48:46.709Z,73.40
2018-03-27T05:49:50.072Z,73.41
2018-03-27T05:50:53.443Z,73.38
2018-03-27T05:51:56.787Z,73.40
2018-03-27T05:53:00.117Z,73.45
2018-03-27T05:54:03.488Z,73.46
2018-03-27T05:55:06.884Z,73.47
2018-03-27T05:56:10.231Z,73.44
2018-03-27T05:57:13.680Z,73.39
2018-03-27T05:58:17.041Z,73.27
2018-03-27T05:59:20.360Z,73.11
2018-03-27T06:00:23.667Z,72.95
2018-03-27T06:01:27.048Z,72.78
2018-03-27T06:02:30.372Z,72.61
2018-03-27T06:03:33.692Z,72.43
2018-03-27T06:04:37.794Z,72.14
2018-03-27T06:05:41.120Z,71.88
2018-03-27T06:06:44.496Z,71.58
2018-03-27T06:07:47.890Z,71.32
2018-03-27T06:08:51.294Z,71.08
2018-03-27T06:09:54.600Z,70.85
2018-03-27T06:10:57.976Z,70.65
2018-03-27T06:12:01.997Z,70.45
2018-03-27T06:13:05.362Z,70.27
2018-03-27T06:14:08.714Z,70.00
2018-03-27T06:15:12.136Z,69.72
2018-03-27T06:16:15.507Z,69.58
2018-03-27T06:17:18.841Z,69.45
2018-03-27T06:18:22.173Z,69.31
2018-03-27T06:19:25.499Z,69.22
2018-03-27T06:20:28.883Z,68.96
2018-03-27T06:21:32.228Z,68.67
2018-03-27T06:22:35.561Z,68.38
2018-03-27T06:23:38.985Z,68.03
2018-03-27T06:24:42.328Z,67.78
2018-03-27T06:25:45.692Z,67.52
2018-03-27T06:26:49.036Z,67.27
2018-03-27T06:27:52.372Z,66.94
2018-03-27T06:28:55.699Z,66.65
2018-03-27T06:29:59.961Z,66.42
2018-03-27T06:31:03.275Z,66.23
2018-03-27T06:32:06.714Z,65.89
2018-03-27T06:33:10.036Z,65.56
2018-03-27T06:34:13.508Z,65.24
2018-03-27T06:35:16.853Z,64.87
2018-03-27T06:36:20.260Z,64.53
2018-03-27T06:37:23.567Z,64.25
2018-03-27T06:38:26.888Z,63.91
2018-03-27T06:39:30.324Z,63.58
2018-03-27T06:40:33.636Z,63.23
2018-03-27T06:41:37.026Z,62.92
2018-03-27T06:42:40.384Z,62.65
2018-03-27T06:43:43.696Z,62.40
2018-03-27T06:44:47.050Z,62.15
2018-03-27T06:45:51.321Z,61.87
2018-03-27T06:46:54.647Z,61.64
2018-03-27T06:47:57.986Z,61.35
2018-03-27T06:49:01.364Z,61.10
2018-03-27T06:50:04.727Z,60.86
2018-03-27T06:51:08.059Z,60.66
2018-03-27T06:52:11.431Z,60.44
2018-03-27T06:53:14.744Z,60.33
2018-03-27T06:54:18.126Z,60.22
2018-03-27T06:55:21.546Z,60.01
2018-03-27T06:56:24.936Z,59.89
2018-03-27T06:57:28.255Z,59.70
2018-03-27T06:58:31.598Z,59.61
2018-03-27T06:59:34.920Z,59.46
2018-03-27T07:00:38.293Z,59.35
2018-03-27T07:01:41.602Z,59.32
2018-03-27T07:02:44.953Z,59.21
2018-03-27T07:03:49.022Z,59.16
2018-03-27T07:04:56.016Z,59.17
2018-03-27T07:05:59.431Z,59.14
2018-03-27T07:07:02.739Z,59.12
2018-03-27T07:08:06.055Z,59.11
2018-03-27T07:09:09.403Z,59.08
2018-03-27T07:10:12.718Z,58.95
2018-03-27T07:11:16.122Z,58.90
2018-03-27T07:12:19.412Z,58.87
2018-03-27T07:13:22.747Z,58.89
2018-03-27T07:14:26.080Z,59.03
2018-03-27T07:15:29.481Z,59.17
2018-03-27T07:16:32.867Z,59.27
2018-03-27T07:17:36.348Z,59.30
2018-03-27T07:18:39.866Z,59.42
2018-03-27T07:19:43.596Z,59.50
2018-03-27T07:20:46.941Z,59.65
2018-03-27T07:21:50.281Z,59.80
2018-03-27T07:22:53.736Z,59.93
2018-03-27T07:23:57.101Z,60.06
2018-03-27T07:25:00.411Z,60.04
2018-03-27T07:26:03.785Z,60.07
2018-03-27T07:27:07.137Z,60.07
2018-03-27T07:28:10.568Z,60.06
2018-03-27T07:29:13.926Z,60.04
2018-03-27T07:30:17.484Z,60.08
2018-03-27T07:31:20.754Z,60.10
2018-03-27T07:32:24.306Z,60.14
2018-03-27T07:33:27.576Z,60.23
2018-03-27T07:34:31.064Z,60.36
2018-03-27T07:35:34.406Z,60.48
2018-03-27T07:36:37.798Z,60.46
2018-03-27T07:37:41.158Z,60.42
2018-03-27T07:38:44.520Z,60.46
2018-03-27T07:39:47.828Z,60.46
2018-03-27T07:40:51.821Z,60.48
2018-03-27T07:41:57.205Z,60.52
2018-03-27T07:43:00.585Z,60.59
2018-03-27T07:44:03.903Z,60.65
2018-03-27T07:45:07.262Z,60.65
2018-03-27T07:46:10.571Z,60.65
2018-03-27T07:47:13.886Z,60.71
2018-03-27T07:48:17.260Z,60.77
2018-03-27T07:49:20.576Z,60.82
2018-03-27T07:50:23.965Z,60.90
2018-03-27T07:51:27.333Z,60.85
2018-03-27T07:52:30.720Z,60.84
2018-03-27T07:53:34.107Z,60.91
2018-03-27T07:54:37.836Z,60.89
2018-03-27T07:55:41.137Z,60.87
2018-03-27T07:56:44.525Z,60.92
2018-03-27T07:57:47.806Z,61.03
2018-03-27T07:58:51.248Z,60.91
2018-03-27T07:59:54.579Z,60.81
2018-03-27T08:00:57.890Z,60.67
2018-03-27T08:03:03.686Z,60.57
2018-03-27T08:04:07.023Z,60.62
2018-03-27T08:05:10.355Z,60.68
2018-03-27T08:06:13.707Z,60.69
2018-03-27T08:07:17.095Z,60.79
2018-03-27T08:08:20.444Z,60.73
2018-03-27T08:09:23.780Z,60.67
2018-03-27T08:10:27.097Z,60.68
2018-03-27T08:11:30.448Z,60.66
2018-03-27T08:12:33.749Z,60.58
2018-03-27T08:13:37.123Z,60.46
2018-03-27T08:14:40.482Z,60.35
2018-03-27T08:15:43.892Z,60.22
2018-03-27T08:16:47.233Z,60.15
2018-03-27T08:17:51.461Z,60.10
2018-03-27T08:18:54.860Z,59.99
2018-03-27T08:19:58.235Z,59.84
2018-03-27T08:21:01.560Z,59.72
2018-03-27T08:22:04.931Z,59.38
2018-03-27T08:23:08.327Z,59.13
2018-03-27T08:24:12.514Z,58.94
2018-03-27T08:25:16.434Z,58.65
2018-03-27T08:26:19.763Z,58.41
2018-03-27T08:27:23.398Z,58.30
2018-03-27T08:28:26.728Z,58.22
2018-03-27T08:29:30.088Z,58.08
2018-03-27T08:30:35.292Z,57.86
2018-03-27T08:31:38.683Z,57.56
2018-03-27T08:32:42.030Z,57.37
2018-03-27T08:33:45.401Z,57.08
2018-03-27T08:34:48.873Z,57.01
2018-03-27T08:35:53.092Z,57.01
2018-03-27T08:36:56.503Z,56.75
2018-03-27T08:37:59.858Z,56.49
2018-03-27T08:39:03.165Z,56.17
2018-03-27T08:40:06.520Z,55.97
2018-03-27T08:41:09.888Z,55.80
2018-03-27T08:42:13.192Z,55.59
2018-03-27T08:43:16.567Z,55.42
2018-03-27T08:44:19.930Z,55.37
2018-03-27T08:45:23.279Z,55.24
2018-03-27T08:46:26.615Z,55.13
2018-03-27T08:47:29.977Z,55.08
2018-03-27T08:48:33.353Z,55.15
2018-03-27T08:49:36.641Z,55.19
2018-03-27T08:50:40.012Z,55.15
2018-03-27T08:51:43.364Z,55.16
2018-03-27T08:52:46.798Z,55.06
2018-03-27T08:53:50.136Z,54.99
2018-03-27T08:54:53.494Z,54.99
2018-03-27T08:55:57.729Z,54.97
2018-03-27T08:57:01.215Z,54.91
2018-03-27T08:58:04.548Z,54.89
2018-03-27T08:59:07.889Z,54.85
2018-03-27T09:00:11.228Z,54.80
2018-03-27T09:01:14.523Z,54.65
2018-03-27T09:02:17.924Z,54.52
2018-03-27T09:03:21.239Z,54.34
2018-03-27T09:04:24.587Z,54.14
2018-03-27T09:05:27.971Z,53.98
2018-03-27T09:06:31.378Z,53.85
2018-03-27T09:07:34.733Z,53.72
2018-03-27T09:08:38.080Z,53.55
2018-03-27T09:09:41.434Z,53.36
2018-03-27T09:10:44.773Z,53.14
2018-03-27T09:11:48.111Z,52.74
2018-03-27T09:12:51.520Z,52.24
2018-03-27T09:13:54.935Z,51.73
2018-03-27T09:14:58.263Z,51.25
2018-03-27T09:16:01.596Z,50.83
2018-03-27T09:17:04.918Z,50.62
2018-03-27T09:18:08.256Z,50.43
2018-03-27T09:19:11.584Z,50.33
2018-03-27T09:20:14.946Z,50.13
2018-03-27T09:21:18.284Z,50.02
2018-03-27T09:22:21.625Z,49.82
2018-03-27T09:23:24.994Z,49.79
2018-03-27T09:24:28.368Z,49.59
2018-03-27T09:25:31.700Z,49.45
2018-03-27T09:26:35.015Z,49.18
2018-03-27T09:27:38.409Z,48.98
2018-03-27T09:28:41.771Z,48.96
2018-03-27T09:29:45.088Z,48.92
2018-03-27T09:30:49.368Z,48.79
2018-03-27T09:31:52.725Z,48.65
2018-03-27T09:32:56.049Z,48.71
2018-03-27T09:33:59.427Z,48.65
2018-03-27T09:35:02.745Z,48.64
2018-03-27T09:36:06.082Z,48.63
2018-03-27T09:37:09.445Z,48.60
2018-03-27T09:38:12.822Z,48.44
2018-03-27T09:39:16.328Z,48.29
2018-03-27T09:40:19.767Z,48.16
2018-03-27T09:41:23.136Z,48.12
2018-03-27T09:42:26.437Z,48.07
2018-03-27T09:43:29.775Z,48.05
2018-03-27T09:44:33.203Z,48.09
2018-03-27T09:45:36.539Z,48.05
2018-03-27T09:46:40.807Z,48.07
2018-03-27T09:47:44.188Z,48.14
2018-03-27T09:48:47.571Z,48.02
2018-03-27T09:49:50.954Z,47.95
2018-03-27T09:50:54.322Z,47.73
2018-03-27T09:51:57.682Z,47.51
2018-03-27T09:53:01.097Z,47.41
2018-03-27T09:54:04.444Z,47.16
2018-03-27T09:55:07.811Z,47.17
2018-03-27T09:56:11.135Z,47.19
2018-03-27T09:57:14.481Z,47.20
2018-03-27T09:58:17.818Z,47.20
2018-03-27T09:59:21.533Z,47.11
2018-03-27T10:00:30.590Z,47.06
2018-03-27T10:01:40.354Z,47.09
2018-03-27T10:02:43.652Z,47.00
2018-03-27T10:03:46.985Z,46.92
2018-03-27T10:04:50.574Z,46.51
2018-03-27T10:05:53.904Z,46.16
2018-03-27T10:06:57.237Z,45.96
2018-03-27T10:08:00.632Z,45.86
2018-03-27T10:09:04.084Z,45.84
2018-03-27T10:10:07.461Z,45.79
2018-03-27T10:11:10.841Z,45.53
2018-03-27T10:12:14.219Z,45.28
2018-03-27T10:13:17.532Z,45.19
2018-03-27T10:14:20.855Z,45.11
2018-03-27T10:15:24.184Z,45.06
2018-03-27T10:16:27.622Z,44.64
2018-03-27T10:17:31.024Z,44.14
2018-03-27T10:18:34.368Z,43.75
2018-03-27T10:19:37.692Z,43.64
2018-03-27T10:20:41.041Z,43.72
2018-03-27T10:21:44.488Z,43.81
2018-03-27T10:22:47.814Z,43.87
2018-03-27T10:23:51.164Z,43.79
2018-03-27T10:24:54.511Z,43.82
2018-03-27T10:25:57.903Z,43.84
2018-03-27T10:27:01.308Z,43.86
2018-03-27T10:28:04.717Z,43.93
2018-03-27T10:29:08.023Z,43.90
2018-03-27T10:30:11.363Z,43.94
2018-03-27T10:31:15.918Z,43.96
2018-03-27T10:32:19.282Z,43.92
2018-03-27T10:33:22.620Z,43.78
2018-03-27T10:34:26.034Z,43.72
2018-03-27T10:35:29.359Z,43.65
2018-03-27T10:36:32.707Z,43.57
2018-03-27T10:37:36.029Z,43.45
2018-03-27T10:38:39.396Z,43.30
2018-03-27T10:39:42.728Z,43.21
2018-03-27T10:40:46.061Z,43.28
2018-03-27T10:41:49.401Z,43.54
2018-03-27T10:42:52.746Z,43.61
2018-03-27T10:43:56.175Z,43.34
2018-03-27T10:44:59.524Z,43.25
2018-03-27T10:46:02.885Z,43.21
2018-03-27T10:47:06.185Z,43.24
2018-03-27T10:48:09.600Z,43.18
2018-03-27T10:49:12.935Z,43.26
2018-03-27T10:50:16.239Z,43.26
2018-03-27T10:51:19.565Z,43.21
2018-03-27T10:52:22.928Z,43.17
2018-03-27T10:53:26.465Z,43.18
2018-03-27T10:54:29.763Z,43.00
2018-03-27T10:55:33.152Z,42.54
2018-03-27T10:56:36.613Z,42.36
2018-03-27T10:57:39.991Z,42.21
2018-03-27T10:58:43.396Z,41.96
2018-03-27T10:59:46.711Z,41.70
2018-03-27T11:00:50.048Z,41.43
2018-03-27T11:01:53.419Z,40.96
2018-03-27T11:02:56.799Z,40.76
2018-03-27T11:04:00.258Z,40.39
2018-03-27T11:05:03.602Z,40.12
2018-03-27T11:06:06.960Z,39.76
2018-03-27T11:07:10.265Z,39.36
2018-03-27T11:08:13.605Z,39.14
2018-03-27T11:09:16.953Z,38.96
2018-03-27T11:10:20.298Z,38.83
2018-03-27T11:11:23.640Z,38.65
2018-03-27T11:12:27.066Z,38.44
2018-03-27T11:13:30.661Z,38.14
2018-03-27T11:14:34.023Z,38.00
2018-03-27T11:15:37.460Z,37.95
2018-03-27T11:16:40.809Z,37.90
2018-03-27T11:17:44.157Z,37.90
2018-03-27T11:18:47.484Z,37.79
2018-03-27T11:19:50.893Z,37.83
2018-03-27T11:20:54.217Z,37.92
2018-03-27T11:21:58.656Z,37.97
2018-03-27T11:23:02.537Z,37.98
2018-03-27T11:24:05.853Z,38.01
2018-03-27T11:25:09.242Z,38.10
2018-03-27T11:26:12.628Z,38.20
2018-03-27T11:27:16.006Z,38.32
2018-03-27T11:28:19.309Z,38.38
2018-03-27T11:29:22.705Z,38.49
2018-03-27T11:30:26.125Z,38.59
2018-03-27T11:31:29.419Z,38.64
2018-03-27T11:32:32.752Z,38.62
2018-03-27T11:33:36.114Z,38.60
2018-03-27T11:34:39.472Z,38.62
2018-03-27T11:35:42.828Z,38.68
2018-03-27T11:36:46.211Z,38.67
2018-03-27T11:37:49.535Z,38.58
2018-03-27T11:38:52.960Z,38.50
2018-03-27T11:39:56.255Z,38.51
2018-03-27T11:40:59.591Z,38.39
2018-03-27T11:42:02.922Z,38.21
2018-03-27T11:43:06.302Z,38.12
2018-03-27T11:44:09.617Z,37.92
2018-03-27T11:45:12.979Z,37.86
2018-03-27T11:46:16.342Z,37.75
2018-03-27T11:47:19.652Z,37.74
2018-03-27T11:48:23.030Z,37.79
2018-03-27T11:49:26.405Z,37.75
2018-03-27T11:50:29.713Z,37.67
2018-03-27T11:51:33.080Z,37.70
2018-03-27T11:52:36.421Z,37.74
2018-03-27T11:53:39.825Z,37.75
2018-03-27T11:54:43.116Z,37.86
2018-03-27T11:55:46.435Z,37.86
2018-03-27T11:56:49.786Z,37.96
2018-03-27T11:57:53.182Z,38.07
2018-03-27T11:58:56.556Z,38.15
2018-03-27T12:00:00.280Z,38.28
2018-03-27T12:01:03.581Z,38.40
2018-03-27T12:02:06.999Z,38.45
2018-03-27T12:03:10.885Z,38.49
2018-03-27T12:04:14.266Z,38.51
2018-03-27T12:05:17.576Z,38.57
2018-03-27T12:06:20.926Z,38.67
2018-03-27T12:07:24.283Z,38.75
2018-03-27T12:08:27.650Z,38.79
2018-03-27T12:09:30.981Z,38.88
2018-03-27T12:10:34.348Z,38.97
2018-03-27T12:11:37.673Z,39.05
2018-03-27T12:12:41.020Z,39.13
2018-03-27T12:13:44.321Z,39.22
2018-03-27T12:14:47.632Z,39.32
2018-03-27T12:15:50.996Z,39.48
2018-03-27T12:16:54.325Z,39.61
2018-03-27T12:17:57.693Z,39.68
2018-03-27T12:19:01.387Z,39.82
2018-03-27T12:20:04.784Z,39.95
2018-03-27T12:21:08.122Z,40.10
2018-03-27T12:22:11.432Z,40.26
2018-03-27T12:23:14.847Z,40.30
2018-03-27T12:24:18.189Z,40.33
2018-03-27T12:25:21.512Z,40.36
2018-03-27T12:26:24.920Z,40.42
2018-03-27T12:27:28.348Z,40.46
2018-03-27T12:28:31.732Z,40.48
2018-03-27T12:29:35.065Z,40.50
2018-03-27T12:30:38.449Z,40.53
2018-03-27T12:31:43.498Z,40.57
2018-03-27T12:32:46.844Z,40.60
2018-03-27T12:33:50.235Z,40.67
2018-03-27T12:34:53.568Z,40.74
2018-03-27T12:35:56.940Z,40.81
2018-03-27T12:37:00.290Z,40.89
2018-03-27T12:38:03.603Z,40.84
2018-03-27T12:39:07.277Z,40.76
2018-03-27T12:40:11.405Z,40.66
2018-03-27T12:41:14.786Z,40.69
2018-03-27T12:42:18.181Z,40.68
2018-03-27T12:43:21.440Z,40.69
2018-03-27T12:44:24.849Z,40.79
2018-03-27T12:45:28.139Z,40.76
2018-03-27T12:46:31.487Z,40.87
2018-03-27T12:47:34.792Z,40.94
2018-03-27T12:48:38.141Z,40.97
2018-03-27T12:49:41.530Z,40.95
2018-03-27T12:50:45.198Z,40.92
2018-03-27T12:51:48.549Z,40.95
2018-03-27T12:52:51.871Z,40.96
2018-03-27T12:53:55.273Z,40.98
2018-03-27T12:54:58.620Z,41.08
2018-03-27T12:56:02.006Z,41.06
2018-03-27T12:57:05.309Z,41.10
2018-03-27T12:58:08.749Z,41.16
2018-03-27T12:59:12.104Z,41.18
2018-03-27T13:00:15.452Z,41.23
2018-03-27T13:01:18.802Z,41.29
2018-03-27T13:02:22.103Z,41.33
2018-03-27T13:03:25.448Z,41.32
2018-03-27T13:04:28.825Z,41.33
2018-03-27T13:05:32.246Z,41.35
2018-03-27T13:06:35.533Z,41.37
2018-03-27T13:07:38.841Z,41.43
2018-03-27T13:08:42.203Z,41.47
2018-03-27T13:09:45.515Z,41.49
2018-03-27T13:10:48.948Z,41.48
2018-03-27T13:11:52.300Z,41.44
2018-03-27T13:12:55.699Z,41.47
2018-03-27T13:13:58.996Z,41.45
2018-03-27T13:15:02.328Z,41.45
2018-03-27T13:16:05.720Z,41.52
2018-03-27T13:17:09.068Z,41.51
2018-03-27T13:18:12.425Z,41.54
2018-03-27T13:19:15.803Z,41.60
2018-03-27T13:20:19.111Z,41.77
2018-03-27T13:21:22.584Z,42.09
2018-03-27T13:22:25.956Z,42.20
2018-03-27T13:23:29.308Z,42.41
2018-03-27T13:24:32.694Z,42.82
2018-03-27T13:25:36.041Z,43.04
2018-03-27T13:26:39.408Z,43.17
2018-03-27T13:27:42.892Z,43.21
2018-03-27T13:28:46.226Z,43.25
2018-03-27T13:29:49.546Z,43.28
2018-03-27T13:30:52.875Z,43.39
2018-03-27T13:31:57.868Z,43.45
2018-03-27T13:33:01.284Z,43.54
2018-03-27T13:34:04.606Z,43.56
2018-03-27T13:35:07.974Z,43.75
2018-03-27T13:36:11.313Z,43.79
2018-03-27T13:37:14.765Z,43.90
2018-03-27T13:38:18.114Z,44.05
2018-03-27T13:39:21.473Z,44.06
2018-03-27T13:40:24.814Z,44.10
2018-03-27T13:41:28.158Z,44.31
2018-03-27T13:42:31.493Z,44.39